Time;durP1;ratioP1;P1;durP2;ratioP2;P2;SDS_P1;SDS_P2;PMS_P1;PMS_P2;Temp;Humidity;BMP_temperature;BMP_pressure;BME280_temperature;BME280_humidity;BME280_pressure;Samples;Min_cycle;Max_cycle;Signal;HPM_P1;HPM_P2
2023/09/22 00:09:25;;;;;;;7.00;3.90;;;;;;;20.44;93.76;99324.56;667826;1267;138768;-77
2023/09/22 00:24:29;;;;;;;5.90;4.30;;;;;;;20.28;94.25;99318.94;668344;1264;139372;-77
2023/09/22 00:39:33;;;;;;;8.20;4.60;;;;;;;20.07;96.85;99306.30;668542;1266;140521;-77
2023/09/22 00:54:38;;;;;;;7.30;4.80;;;;;;;19.96;97.52;99288.98;666979;1269;139104;-77
2023/09/22 01:09:41;;;;;;;10.60;4.80;;;;;;;19.95;98.89;99279.24;668039;1266;138888;-78
2023/09/22 01:24:45;;;;;;;7.80;4.80;;;;;;;20.08;98.19;99274.51;667570;1260;260462;-78
2023/09/22 01:39:48;;;;;;;6.90;4.80;;;;;;;20.29;98.79;99268.21;668083;1265;139148;-78
2023/09/22 01:54:51;;;;;;;8.10;4.70;;;;;;;20.35;99.00;99248.09;668250;1263;141092;-78
2023/09/22 02:09:55;;;;;;;6.80;4.20;;;;;;;20.35;98.41;99239.90;668249;1264;139507;-77
2023/09/22 02:24:58;;;;;;;8.30;5.00;;;;;;;20.24;97.91;99229.39;668196;1263;138627;-77
2023/09/22 02:40:05;;;;;;;10.00;5.20;;;;;;;20.28;97.16;99220.38;668067;1263;140046;-77
2023/09/22 02:55:09;;;;;;;8.60;4.70;;;;;;;20.36;96.89;99210.69;668438;1264;140263;-77
2023/09/22 03:10:13;;;;;;;6.90;4.60;;;;;;;20.34;96.26;99206.70;670563;1264;138881;-78
2023/09/22 03:25:17;;;;;;;7.40;5.10;;;;;;;20.14;96.14;99203.48;672890;1264;138833;-78
2023/09/22 03:40:31;;;;;;;10.70;6.50;;;;;;;20.01;96.50;99208.33;671821;1266;139135;-78
2023/09/22 03:55:34;;;;;;;9.90;5.90;;;;;;;19.77;97.59;99209.04;676345;1263;139735;-78
2023/09/22 04:10:38;;;;;;;8.30;5.50;;;;;;;19.62;98.13;99208.21;677464;1263;140409;-77
2023/09/22 04:25:42;;;;;;;8.50;5.80;;;;;;;19.59;98.49;99205.02;671631;1260;139013;-78
2023/09/22 04:40:47;;;;;;;8.60;5.00;;;;;;;19.55;98.55;99204.11;675722;1275;140391;-77
2023/09/22 04:56:04;;;;;;;7.20;5.60;;;;;;;19.44;98.96;99200.19;674466;1263;139571;-78
2023/09/22 05:11:08;;;;;;;9.90;5.40;;;;;;;19.36;98.83;99202.01;670629;1268;138834;-78
2023/09/22 05:26:11;;;;;;;6.90;5.40;;;;;;;19.39;99.26;99206.89;670141;1264;139689;-77
2023/09/22 05:41:14;;;;;;;7.90;5.00;;;;;;;19.53;98.65;99207.33;677721;1266;139496;-77
2023/09/22 05:56:18;;;;;;;11.60;5.50;;;;;;;19.86;97.20;99195.98;672816;1263;140541;-78
2023/09/22 06:11:21;;;;;;;6.20;4.80;;;;;;;20.78;94.89;99206.83;669652;1263;138870;-78
2023/09/22 06:26:24;;;;;;;6.00;4.20;;;;;;;24.19;82.42;99210.04;668863;1268;138535;-77
2023/09/22 06:41:28;;;;;;;8.90;5.40;;;;;;;25.41;73.24;99230.27;668576;1259;138431;-78
2023/09/22 06:56:33;;;;;;;5.10;3.80;;;;;;;26.10;69.74;99252.70;668880;1263;138433;-76
2023/09/22 07:11:51;;;;;;;8.50;4.00;;;;;;;27.32;66.63;99264.52;668294;1262;138605;-77
2023/09/22 07:26:55;;;;;;;6.60;4.20;;;;;;;27.71;64.63;99278.91;668173;1265;139495;-77
2023/09/22 07:42:02;;;;;;;8.00;4.00;;;;;;;27.02;65.37;99282.34;668841;1263;139367;-78
2023/09/22 07:57:06;;;;;;;7.80;4.00;;;;;;;27.52;63.80;99283.39;669086;1261;138133;-78
2023/09/22 08:33:53;;;;;;;6.90;4.00;;;;;;;25.56;68.13;99289.82;651688;1292;545438;-78
2023/09/22 08:48:57;;;;;;;7.80;4.40;;;;;;;26.54;66.29;99285.30;663565;1275;139540;-78
2023/09/22 09:04:33;;;;;;;10.00;4.50;;;;;;;27.03;65.45;99251.56;663499;1276;137592;-77
2023/09/22 09:19:37;;;;;;;15.90;4.50;;;;;;;27.49;64.53;99242.52;664125;1277;137586;-78
2023/09/22 09:34:41;;;;;;;6.70;4.40;;;;;;;27.65;64.92;99243.47;672183;1275;138504;-79
2023/09/22 09:49:48;;;;;;;9.10;4.10;;;;;;;26.71;65.83;99244.88;665462;1274;137886;-77
2023/09/22 10:04:54;;;;;;;11.00;9.20;;;;;;;26.58;67.43;99244.16;666082;1275;138073;-78
2023/09/22 10:20:06;;;;;;;222.50;124.20;;;;;;;28.62;63.56;99239.77;664759;1275;137616;-77
2023/09/22 10:35:10;;;;;;;8.20;4.70;;;;;;;29.89;60.26;99225.24;666410;1270;138248;-77
2023/09/22 10:50:31;;;;;;;10.50;5.40;;;;;;;28.86;60.43;99205.73;664593;1267;139209;-79
2023/09/22 11:05:38;;;;;;;13.50;7.40;;;;;;;28.77;61.04;99228.53;664795;1272;137864;-76
2023/09/22 11:20:43;;;;;;;14.40;5.40;;;;;;;28.76;61.03;99216.23;667471;1276;138788;-76
2023/09/22 11:35:52;;;;;;;9.90;4.50;;;;;;;28.69;60.91;99211.33;667829;1262;138471;-76
2023/09/22 11:50:55;;;;;;;9.50;4.30;;;;;;;28.02;62.53;99215.84;667714;1264;137892;-76
2023/09/22 12:05:59;;;;;;;8.00;3.80;;;;;;;28.40;62.62;99211.83;667989;1261;139188;-75
2023/09/22 12:21:02;;;;;;;8.10;4.00;;;;;;;28.17;63.03;99213.05;668035;1264;137923;-76
2023/09/22 12:36:06;;;;;;;6.40;3.90;;;;;;;27.64;63.77;99221.72;668243;1264;140165;-77
2023/09/22 12:51:12;;;;;;;8.70;4.00;;;;;;;27.54;64.91;99229.76;668203;1264;138713;-77
2023/09/22 13:06:16;;;;;;;17.60;6.60;;;;;;;27.48;65.84;99231.45;668072;1263;138240;-78
2023/09/22 13:21:20;;;;;;;15.50;5.70;;;;;;;27.67;67.01;99236.67;668267;1276;138731;-75
2023/09/22 13:36:24;;;;;;;9.60;5.50;;;;;;;28.02;66.72;99237.32;667728;1263;138685;-76
2023/09/22 13:51:31;;;;;;;15.10;6.10;;;;;;;27.99;66.42;99242.77;668074;1263;138082;-77
2023/09/22 14:06:35;;;;;;;18.90;6.30;;;;;;;27.59;67.70;99246.77;667670;1261;139926;-76
2023/09/22 14:21:38;;;;;;;10.60;5.20;;;;;;;27.43;67.72;99236.67;668193;1265;138133;-76
2023/09/22 14:36:42;;;;;;;13.20;5.80;;;;;;;27.43;67.59;99234.46;668050;1263;138937;-78
2023/09/22 14:51:46;;;;;;;12.40;5.00;;;;;;;27.71;67.05;99250.46;668593;1264;139266;-75
2023/09/22 15:06:49;;;;;;;12.40;5.70;;;;;;;27.21;68.50;99242.56;674362;1263;138682;-77
2023/09/22 15:21:52;;;;;;;14.50;7.20;;;;;;;26.77;70.32;99233.61;670566;1263;139504;-77
2023/09/22 15:36:56;;;;;;;15.40;6.00;;;;;;;26.62;71.20;99250.37;668492;1264;140385;-76
2023/09/22 15:52:00;;;;;;;15.50;6.50;;;;;;;26.63;71.69;99261.94;668394;1263;139185;-76
2023/09/22 16:07:03;;;;;;;13.50;6.30;;;;;;;26.64;71.52;99261.14;668469;1265;138735;-76
2023/09/22 16:22:07;;;;;;;14.50;7.30;;;;;;;26.55;71.90;99258.86;668285;1264;140767;-78
2023/09/22 16:37:12;;;;;;;14.70;7.80;;;;;;;26.34;73.57;99275.75;669153;1264;138980;-77
2023/09/22 16:52:16;;;;;;;15.40;7.60;;;;;;;26.15;74.46;99275.88;668651;1264;139364;-76
2023/09/22 17:07:20;;;;;;;13.30;7.40;;;;;;;25.90;75.87;99284.63;669024;1263;138507;-78
2023/09/22 17:22:23;;;;;;;14.20;7.80;;;;;;;25.61;76.94;99273.80;669101;1264;138710;-77
2023/09/22 17:37:27;;;;;;;15.40;8.00;;;;;;;25.60;77.50;99276.08;668611;1265;139027;-76
2023/09/22 17:52:31;;;;;;;17.70;7.70;;;;;;;25.33;79.76;99302.13;668480;1270;138755;-77
2023/09/22 18:07:35;;;;;;;21.10;8.40;;;;;;;25.06;80.45;99313.58;668130;1264;138523;-77
2023/09/22 18:22:39;;;;;;;13.50;8.10;;;;;;;24.99;80.09;99321.66;668093;1265;139478;-77
2023/09/22 18:37:43;;;;;;;15.60;8.20;;;;;;;24.72;81.54;99333.79;667767;1264;140986;-77
2023/09/22 18:52:46;;;;;;;22.00;10.30;;;;;;;24.40;81.15;99333.08;668470;1265;139154;-78
2023/09/22 19:07:50;;;;;;;30.20;11.80;;;;;;;24.02;82.18;99344.60;668693;1265;138922;-78
2023/09/22 19:22:53;;;;;;;14.50;8.20;;;;;;;23.68;82.87;99356.61;672899;1260;139062;-78
2023/09/22 19:37:58;;;;;;;13.10;7.40;;;;;;;23.50;84.45;99362.97;671213;1265;139330;-76
2023/09/22 19:53:05;;;;;;;11.60;7.00;;;;;;;23.33;86.91;99384.45;668595;1275;139071;-77
2023/09/22 20:08:09;;;;;;;11.40;6.00;;;;;;;23.23;87.79;99390.43;669247;1263;140395;-77
2023/09/22 20:23:12;;;;;;;10.40;5.80;;;;;;;23.47;86.01;99386.87;672791;1263;139139;-77
2023/09/22 20:38:16;;;;;;;9.80;5.50;;;;;;;23.18;86.18;99422.13;671518;1263;170090;-76
2023/09/22 20:53:20;;;;;;;7.70;5.30;;;;;;;22.75;87.83;99426.20;668326;1274;140406;-76
2023/09/22 21:08:23;;;;;;;10.10;6.00;;;;;;;22.71;87.75;99445.86;668077;1266;139297;-76
2023/09/22 21:23:26;;;;;;;10.80;5.10;;;;;;;22.55;90.56;99441.49;668288;1265;138902;-77
2023/09/22 21:38:30;;;;;;;6.60;4.50;;;;;;;22.23;91.99;99445.52;668006;1263;140552;-77
2023/09/22 21:53:33;;;;;;;6.00;4.70;;;;;;;21.97;92.87;99447.19;668073;1266;140214;-78
2023/09/22 22:08:39;;;;;;;9.60;5.60;;;;;;;21.87;93.20;99457.71;668250;1259;139855;-78
2023/09/22 22:23:43;;;;;;;3.80;2.90;;;;;;;21.65;93.29;99477.02;669330;1264;138477;-77
2023/09/22 22:38:46;;;;;;;6.90;3.20;;;;;;;21.52;93.01;99490.71;669190;1269;139123;-78
2023/09/22 22:53:51;;;;;;;3.10;2.20;;;;;;;21.45;92.00;99510.79;668075;1265;138773;-78
2023/09/22 23:08:54;;;;;;;2.60;2.10;;;;;;;21.41;90.66;99530.39;668100;1266;139240;-77
2023/09/22 23:24:02;;;;;;;3.20;2.20;;;;;;;21.11;90.62;99543.95;667729;1260;140298;-77
2023/09/22 23:39:07;;;;;;;3.00;2.50;;;;;;;21.01;90.83;99546.06;668178;1266;138561;-77
2023/09/22 23:54:12;;;;;;;3.30;2.40;;;;;;;20.47;93.39;99535.13;667882;1264;138675;-77
